Time;durP1;ratioP1;P1;durP2;ratioP2;P2;SDS_P1;SDS_P2;PMS_P1;PMS_P2;Temp;Humidity;BMP_temperature;BMP_pressure;BME280_temperature;BME280_humidity;BME280_pressure;Samples;Min_cycle;Max_cycle;Signal;HPM_P1;HPM_P2
2023/07/09 00:00:49;;;;;;;7.88;6.55;;;19.90;90.70;;;;;;4990607;28;20022;-52
2023/07/09 00:03:15;;;;;;;9.52;6.63;;;19.90;91.30;;;;;;4990615;28;20060;-52
2023/07/09 00:05:41;;;;;;;9.35;5.97;;;19.80;92.00;;;;;;5010103;28;20074;-52
2023/07/09 00:08:27;;;;;;;6.40;5.80;;;19.70;93.10;;;;;;5073930;28;20027;-51
2023/07/09 00:10:55;;;;;;;9.40;6.53;;;19.70;92.50;;;;;;5093036;28;20107;-51
2023/07/09 00:13:22;;;;;;;10.98;6.30;;;19.60;91.40;;;;;;5051271;28;20117;-51
2023/07/09 00:15:49;;;;;;;7.50;6.13;;;19.60;92.00;;;;;;4971438;28;20167;-52
2023/07/09 00:18:14;;;;;;;8.38;6.50;;;19.50;92.60;;;;;;4970094;28;20476;-51
2023/07/09 00:20:43;;;;;;;7.65;6.22;;;19.40;93.10;;;;;;4970922;28;20034;-52
2023/07/09 00:23:09;;;;;;;7.55;5.95;;;19.40;93.70;;;;;;4973298;28;20026;-52
2023/07/09 00:25:35;;;;;;;8.15;5.88;;;19.30;94.30;;;;;;4989354;28;20022;-52
2023/07/09 00:28:01;;;;;;;6.32;5.70;;;19.30;92.70;;;;;;4989053;28;20026;-52
2023/07/09 00:30:27;;;;;;;9.00;5.72;;;19.30;92.90;;;;;;4989751;28;20406;-52
2023/07/09 00:32:54;;;;;;;8.38;6.50;;;19.30;93.40;;;;;;4989793;28;20025;-52
2023/07/09 00:35:20;;;;;;;8.70;6.45;;;19.20;92.90;;;;;;4997880;28;20053;-49
2023/07/09 00:37:47;;;;;;;8.85;6.20;;;19.20;92.90;;;;;;5002435;28;20034;-48
2023/07/09 00:40:18;;;;;;;7.32;6.05;;;19.30;91.90;;;;;;4989490;28;20058;-51
2023/07/09 00:42:46;;;;;;;10.40;6.05;;;19.20;92.80;;;;;;4989792;28;20025;-52
2023/07/09 00:45:24;;;;;;;10.90;6.97;;;19.30;92.40;;;;;;4989336;28;20564;-51
2023/07/09 00:48:02;;;;;;;6.75;6.05;;;19.30;91.70;;;;;;4988744;28;20018;-52
2023/07/09 00:50:36;;;;;;;6.97;6.28;;;19.30;92.20;;;;;;4989584;28;20437;-52
2023/07/09 00:53:10;;;;;;;5.78;5.10;;;19.30;91.80;;;;;;4971885;28;20556;-52
2023/07/09 00:55:40;;;;;;;8.75;5.85;;;19.30;91.70;;;;;;4988945;28;20041;-52
2023/07/09 00:58:10;;;;;;;8.07;6.45;;;19.30;92.10;;;;;;4971511;28;20046;-52
2023/07/09 01:00:46;;;;;;;10.07;5.93;;;19.20;92.10;;;;;;4989638;28;20022;-52
2023/07/09 01:03:19;;;;;;;9.10;5.78;;;19.20;92.80;;;;;;4989367;28;20372;-52
2023/07/09 01:05:51;;;;;;;7.28;5.53;;;19.20;92.00;;;;;;4992194;28;20023;-52
2023/07/09 01:08:17;;;;;;;7.15;5.47;;;19.20;91.80;;;;;;5020792;28;20113;-52
2023/07/09 01:10:42;;;;;;;7.88;5.45;;;19.10;92.90;;;;;;4989381;28;20018;-52
2023/07/09 01:13:08;;;;;;;7.35;5.60;;;19.10;92.70;;;;;;4989328;28;20076;-52
2023/07/09 01:15:35;;;;;;;9.68;6.22;;;19.10;92.00;;;;;;4988545;28;20053;-53
2023/07/09 01:18:01;;;;;;;10.95;6.30;;;19.10;91.80;;;;;;5043707;28;20497;-52
2023/07/09 01:20:27;;;;;;;7.85;5.75;;;19.10;92.10;;;;;;4971305;28;20046;-52
2023/07/09 01:22:54;;;;;;;7.80;6.18;;;19.10;91.90;;;;;;4971641;28;20476;-51
2023/07/09 01:25:20;;;;;;;7.47;5.28;;;19.10;91.90;;;;;;4988888;28;20119;-51
2023/07/09 01:27:47;;;;;;;9.52;6.15;;;19.00;92.50;;;;;;4971153;28;20488;-51
2023/07/09 01:30:22;;;;;;;6.75;5.43;;;19.00;93.00;;;;;;4985023;28;20084;-51
2023/07/09 01:32:49;;;;;;;5.70;5.13;;;19.00;93.00;;;;;;4989277;28;20082;-50
2023/07/09 01:35:17;;;;;;;8.13;5.45;;;19.00;92.50;;;;;;5034758;28;20048;-52
2023/07/09 01:37:44;;;;;;;9.48;5.57;;;18.90;93.60;;;;;;5035233;28;20027;-51
2023/07/09 01:40:13;;;;;;;6.82;5.47;;;18.80;94.30;;;;;;4988460;28;20035;-51
2023/07/09 01:42:38;;;;;;;7.95;5.28;;;18.70;94.10;;;;;;4971425;28;20030;-51
2023/07/09 01:45:05;;;;;;;9.18;6.53;;;18.70;94.80;;;;;;4988790;28;20026;-52
2023/07/09 01:47:31;;;;;;;6.13;5.53;;;18.60;95.40;;;;;;4987596;28;20033;-51
2023/07/09 01:49:57;;;;;;;6.72;5.30;;;18.60;95.80;;;;;;4987825;28;20022;-52
2023/07/09 01:52:25;;;;;;;6.20;5.57;;;18.60;96.10;;;;;;4988189;28;20105;-50
2023/07/09 01:54:50;;;;;;;7.15;5.30;;;18.50;96.70;;;;;;4988348;28;20281;-51
2023/07/09 01:57:25;;;;;;;10.55;6.15;;;18.40;97.20;;;;;;4988069;28;20037;-52
2023/07/09 01:59:54;;;;;;;6.82;5.68;;;18.40;97.10;;;;;;4973598;28;20072;-52
2023/07/09 02:02:23;;;;;;;8.30;6.47;;;18.30;97.30;;;;;;4988031;28;20479;-51
2023/07/09 02:04:53;;;;;;;8.52;7.10;;;18.30;97.40;;;;;;5016720;28;20074;-50
2023/07/09 02:07:20;;;;;;;8.25;6.50;;;18.20;98.10;;;;;;5047467;28;20062;-51
2023/07/09 02:09:45;;;;;;;9.25;7.03;;;18.10;98.40;;;;;;4987702;28;20045;-51
2023/07/09 02:12:12;;;;;;;8.27;6.60;;;18.10;98.60;;;;;;4988213;28;20034;-50
2023/07/09 02:14:39;;;;;;;8.02;7.10;;;18.10;99.00;;;;;;5033735;28;20071;-51
2023/07/09 02:17:05;;;;;;;8.15;6.55;;;18.00;99.30;;;;;;5086676;28;20543;-52
2023/07/09 02:19:31;;;;;;;9.60;7.28;;;18.00;99.80;;;;;;4987623;28;20064;-51
2023/07/09 02:21:57;;;;;;;10.90;7.45;;;17.90;99.90;;;;;;4988014;28;20030;-51
2023/07/09 02:24:27;;;;;;;9.43;7.35;;;17.90;99.60;;;;;;4988629;28;20038;-50
2023/07/09 02:26:57;;;;;;;9.35;6.93;;;17.90;99.90;;;;;;4982210;28;20549;-51
2023/07/09 02:29:24;;;;;;;9.35;8.18;;;17.90;99.90;;;;;;4981241;28;20133;-50
2023/07/09 02:31:52;;;;;;;8.55;7.20;;;17.80;99.90;;;;;;4994227;28;20114;-51
2023/07/09 02:34:19;;;;;;;9.77;6.95;;;17.70;99.90;;;;;;5003931;28;20031;-50
2023/07/09 02:36:45;;;;;;;8.10;6.72;;;17.70;99.90;;;;;;4970457;28;20030;-49
2023/07/09 02:39:12;;;;;;;8.85;6.70;;;17.70;99.90;;;;;;4983632;28;20054;-49
2023/07/09 02:41:41;;;;;;;9.25;7.00;;;17.70;99.90;;;;;;4987794;28;20028;-51
2023/07/09 02:44:07;;;;;;;9.75;6.93;;;17.70;99.90;;;;;;4981010;28;20034;-49
2023/07/09 02:46:33;;;;;;;9.80;7.63;;;17.60;99.90;;;;;;4982250;28;20132;-49
2023/07/09 02:48:59;;;;;;;8.15;7.05;;;17.60;99.90;;;;;;4972759;28;20483;-52
2023/07/09 02:51:26;;;;;;;9.07;6.93;;;17.60;99.90;;;;;;4970334;28;20041;-51
2023/07/09 02:53:53;;;;;;;9.90;7.60;;;17.60;99.90;;;;;;4987393;28;20027;-51
2023/07/09 02:56:19;;;;;;;10.55;8.05;;;17.50;99.90;;;;;;4987930;28;20085;-50
2023/07/09 02:58:44;;;;;;;9.38;6.95;;;17.50;99.90;;;;;;4987094;28;20043;-50
2023/07/09 03:01:10;;;;;;;7.38;6.63;;;17.40;99.90;;;;;;4971322;28;20034;-50
2023/07/09 03:03:35;;;;;;;10.32;7.10;;;17.40;99.90;;;;;;5064433;28;20435;-52
2023/07/09 03:06:01;;;;;;;7.85;6.90;;;17.40;99.90;;;;;;4989956;28;20034;-51
2023/07/09 03:08:26;;;;;;;8.82;6.80;;;17.40;99.90;;;;;;4987150;28;20035;-52
2023/07/09 03:10:52;;;;;;;10.15;7.40;;;17.30;99.90;;;;;;4987656;28;20416;-52
2023/07/09 03:13:17;;;;;;;9.88;7.03;;;17.30;99.90;;;;;;4987041;28;20115;-51
2023/07/09 03:15:43;;;;;;;9.82;7.22;;;17.30;99.90;;;;;;4987094;28;20027;-51
2023/07/09 03:18:08;;;;;;;7.50;6.68;;;17.30;99.90;;;;;;4986138;28;20034;-49
2023/07/09 03:20:34;;;;;;;12.98;7.65;;;17.20;99.90;;;;;;4995395;28;20043;-47
2023/07/09 03:22:59;;;;;;;10.02;7.00;;;17.20;99.90;;;;;;5008357;28;20022;-51
2023/07/09 03:25:25;;;;;;;10.40;7.30;;;17.20;99.90;;;;;;4987169;28;20065;-49
2023/07/09 03:27:50;;;;;;;8.60;7.43;;;17.20;99.90;;;;;;4987445;28;20121;-50
2023/07/09 03:30:16;;;;;;;9.93;7.38;;;17.20;99.90;;;;;;4986806;28;20228;-52
2023/07/09 03:32:43;;;;;;;8.82;7.82;;;17.10;99.90;;;;;;4987587;28;20023;-49
2023/07/09 03:35:09;;;;;;;9.10;7.72;;;17.10;99.90;;;;;;4986712;28;20454;-51
2023/07/09 03:37:34;;;;;;;11.73;7.15;;;17.10;99.90;;;;;;4987253;28;20018;-51
2023/07/09 03:40:00;;;;;;;11.20;7.93;;;17.10;99.90;;;;;;4986882;28;20031;-49
2023/07/09 03:42:25;;;;;;;11.85;6.97;;;17.10;99.90;;;;;;4987235;28;20054;-51
2023/07/09 03:44:51;;;;;;;9.10;7.30;;;17.10;99.90;;;;;;4987126;28;20030;-51
2023/07/09 03:47:17;;;;;;;8.68;7.30;;;17.10;99.90;;;;;;4986915;28;20069;-49
2023/07/09 03:49:43;;;;;;;7.88;6.97;;;17.20;99.90;;;;;;5007027;28;20077;-51
2023/07/09 03:52:09;;;;;;;9.02;7.35;;;17.10;99.90;;;;;;5072368;28;20481;-51
2023/07/09 03:54:34;;;;;;;9.63;7.47;;;17.10;99.90;;;;;;5089863;28;20047;-51
2023/07/09 03:57:00;;;;;;;10.63;7.20;;;17.10;99.90;;;;;;4975570;28;20407;-51
2023/07/09 03:59:25;;;;;;;10.30;7.57;;;17.20;99.90;;;;;;4986519;28;20026;-49
2023/07/09 04:01:51;;;;;;;9.80;7.05;;;17.20;99.90;;;;;;4979841;28;20391;-51
2023/07/09 04:04:20;;;;;;;7.65;6.57;;;17.20;99.90;;;;;;4982591;28;20041;-51
2023/07/09 04:06:46;;;;;;;10.13;7.28;;;17.20;99.90;;;;;;4986215;28;20083;-50
2023/07/09 04:09:12;;;;;;;10.07;7.80;;;17.20;99.90;;;;;;4986268;28;20547;-51
2023/07/09 04:11:37;;;;;;;8.30;7.35;;;17.20;99.90;;;;;;4984562;28;20113;-50
2023/07/09 04:14:03;;;;;;;8.82;7.82;;;17.20;99.90;;;;;;4986763;28;20027;-49
2023/07/09 04:16:28;;;;;;;12.88;6.72;;;17.20;99.90;;;;;;4986567;28;20034;-50
2023/07/09 04:18:54;;;;;;;10.90;7.30;;;17.20;99.90;;;;;;4986246;28;20406;-49
2023/07/09 04:21:19;;;;;;;7.30;6.30;;;17.20;99.90;;;;;;5025552;28;20035;-51
2023/07/09 04:23:45;;;;;;;7.75;6.43;;;17.20;99.90;;;;;;5046590;28;20022;-52
2023/07/09 04:26:13;;;;;;;7.40;6.25;;;17.20;99.90;;;;;;4971885;28;20131;-52
2023/07/09 04:28:38;;;;;;;7.85;7.05;;;17.30;99.90;;;;;;4986780;28;20056;-51
2023/07/09 04:31:04;;;;;;;8.88;6.90;;;17.30;99.90;;;;;;4981773;28;20022;-52
2023/07/09 04:33:29;;;;;;;7.75;6.18;;;17.30;99.90;;;;;;4980265;28;20580;-52
2023/07/09 04:35:55;;;;;;;7.13;6.40;;;17.40;99.90;;;;;;4971352;28;20031;-51
2023/07/09 04:38:21;;;;;;;11.35;7.43;;;17.40;99.90;;;;;;4967638;28;20066;-52
2023/07/09 04:40:47;;;;;;;9.50;6.78;;;17.50;99.90;;;;;;4990340;28;20484;-51
2023/07/09 04:43:12;;;;;;;8.15;6.00;;;17.50;99.90;;;;;;5032109;28;20036;-52
2023/07/09 04:45:38;;;;;;;7.82;6.72;;;17.60;99.90;;;;;;4991535;28;20387;-52
2023/07/09 04:48:04;;;;;;;8.85;6.38;;;17.60;99.90;;;;;;4977819;28;20112;-52
2023/07/09 04:50:29;;;;;;;7.95;6.20;;;17.60;99.90;;;;;;4989379;28;20315;-52
2023/07/09 04:52:55;;;;;;;8.23;6.75;;;17.60;99.90;;;;;;4989583;28;20030;-52
2023/07/09 04:55:20;;;;;;;9.80;7.35;;;17.70;99.90;;;;;;4989560;28;20095;-52
2023/07/09 04:57:46;;;;;;;10.57;7.05;;;17.70;99.90;;;;;;4990367;28;20030;-52
2023/07/09 05:00:12;;;;;;;9.50;6.70;;;17.80;99.90;;;;;;4989466;28;20395;-52
2023/07/09 05:02:38;;;;;;;10.82;6.40;;;17.90;99.90;;;;;;4989486;28;20391;-52
2023/07/09 05:05:03;;;;;;;10.27;5.88;;;17.90;99.90;;;;;;4988864;28;20063;-51
2023/07/09 05:07:29;;;;;;;6.97;6.13;;;18.00;99.90;;;;;;4989173;28;20369;-52
2023/07/09 05:09:54;;;;;;;9.45;6.57;;;18.00;99.90;;;;;;4988151;28;20041;-52
2023/07/09 05:12:20;;;;;;;8.32;6.60;;;18.00;99.90;;;;;;5015944;28;20034;-51
2023/07/09 05:14:46;;;;;;;8.43;7.47;;;18.10;99.90;;;;;;4987845;28;20071;-52
2023/07/09 05:17:12;;;;;;;11.80;6.93;;;18.20;99.90;;;;;;4988703;28;20038;-52
2023/07/09 05:19:38;;;;;;;7.80;6.45;;;18.20;99.90;;;;;;4988349;28;20034;-52
2023/07/09 05:22:04;;;;;;;8.65;6.80;;;18.40;99.90;;;;;;4988268;28;20467;-52
2023/07/09 05:24:30;;;;;;;8.40;6.90;;;18.40;99.90;;;;;;4986333;28;20029;-51
2023/07/09 05:26:55;;;;;;;7.63;6.82;;;18.50;99.90;;;;;;4987902;28;20026;-51
2023/07/09 05:29:21;;;;;;;11.70;6.50;;;18.60;99.90;;;;;;4987597;28;20028;-52
2023/07/09 05:31:46;;;;;;;7.07;6.07;;;18.70;99.90;;;;;;4987307;28;20476;-52
2023/07/09 05:34:12;;;;;;;8.20;6.20;;;18.70;99.90;;;;;;4987293;28;20050;-52
2023/07/09 05:36:38;;;;;;;8.82;6.88;;;18.80;99.90;;;;;;4987922;28;20109;-52
2023/07/09 05:39:04;;;;;;;9.45;6.78;;;18.90;99.90;;;;;;4988294;28;20030;-52
2023/07/09 05:41:29;;;;;;;10.98;6.80;;;19.00;99.90;;;;;;5045742;28;20071;-52
2023/07/09 05:43:55;;;;;;;7.28;6.43;;;19.10;99.90;;;;;;5091513;28;20028;-52
2023/07/09 05:46:22;;;;;;;8.20;6.15;;;19.20;99.90;;;;;;5091463;28;20036;-52
2023/07/09 05:48:48;;;;;;;10.00;7.25;;;19.30;99.90;;;;;;5090839;28;20408;-52
2023/07/09 05:51:13;;;;;;;10.90;6.28;;;19.50;99.90;;;;;;5091161;28;20039;-51
2023/07/09 05:53:39;;;;;;;7.10;6.40;;;19.50;99.90;;;;;;5091071;28;20060;-52
2023/07/09 05:56:05;;;;;;;9.30;6.32;;;19.60;99.90;;;;;;5091014;28;20028;-53
2023/07/09 05:58:30;;;;;;;6.85;6.15;;;19.70;99.90;;;;;;5072407;28;20040;-52
2023/07/09 06:00:57;;;;;;;8.88;6.45;;;19.80;99.90;;;;;;5024567;28;20093;-52
2023/07/09 06:03:25;;;;;;;15.93;6.70;;;19.90;99.90;;;;;;4979784;28;20510;-52
2023/07/09 06:05:51;;;;;;;7.63;6.70;;;20.00;99.90;;;;;;4979642;28;20105;-51
2023/07/09 06:08:18;;;;;;;6.75;6.05;;;20.10;99.90;;;;;;4987946;28;20018;-51
2023/07/09 06:10:55;;;;;;;6.70;6.00;;;20.10;99.90;;;;;;5012222;28;20016;-51
2023/07/09 06:13:21;;;;;;;7.75;6.38;;;20.20;99.90;;;;;;5017724;28;20554;-52
2023/07/09 06:15:48;;;;;;;7.65;6.68;;;20.40;99.90;;;;;;5001104;28;20243;-51
2023/07/09 06:18:14;;;;;;;8.63;6.50;;;20.50;99.90;;;;;;4986736;28;20034;-52
2023/07/09 06:20:39;;;;;;;8.35;6.53;;;20.60;99.60;;;;;;5032095;28;20028;-52
2023/07/09 06:23:05;;;;;;;10.63;6.97;;;20.70;98.80;;;;;;5089828;28;20359;-53
2023/07/09 06:25:30;;;;;;;7.40;6.45;;;20.90;98.40;;;;;;5090187;28;20370;-52
2023/07/09 06:27:57;;;;;;;8.77;6.50;;;21.00;98.40;;;;;;5090207;28;20027;-52
2023/07/09 06:30:22;;;;;;;9.07;6.85;;;21.10;98.40;;;;;;5071967;28;20018;-53
2023/07/09 06:32:48;;;;;;;8.80;6.25;;;21.20;97.50;;;;;;5014614;28;20028;-53
2023/07/09 06:35:14;;;;;;;7.95;6.25;;;21.40;97.70;;;;;;5059423;28;20028;-53
2023/07/09 06:37:39;;;;;;;7.28;6.47;;;21.40;97.60;;;;;;5089310;28;20038;-53
2023/07/09 06:40:08;;;;;;;7.95;6.43;;;21.50;97.30;;;;;;5089510;28;20397;-52
2023/07/09 06:42:34;;;;;;;8.63;6.30;;;21.60;96.90;;;;;;5011620;28;20129;-52
2023/07/09 06:44:59;;;;;;;8.38;6.63;;;21.80;96.00;;;;;;4987311;28;20442;-52
2023/07/09 06:47:25;;;;;;;10.95;7.43;;;21.90;95.80;;;;;;4987473;28;20031;-52
2023/07/09 06:49:50;;;;;;;7.43;5.55;;;22.00;95.80;;;;;;5016192;28;20031;-52
2023/07/09 06:52:16;;;;;;;7.80;7.00;;;22.10;96.20;;;;;;5088286;28;20039;-52
2023/07/09 06:54:41;;;;;;;7.55;6.47;;;22.20;95.50;;;;;;5089714;28;20027;-53
2023/07/09 06:57:07;;;;;;;8.82;6.63;;;22.30;95.30;;;;;;5089028;28;20024;-53
2023/07/09 06:59:32;;;;;;;7.65;6.25;;;22.40;94.90;;;;;;5089334;28;20032;-53
2023/07/09 07:01:58;;;;;;;8.65;6.35;;;22.50;95.10;;;;;;5088786;28;20043;-52
2023/07/09 07:04:26;;;;;;;12.32;6.63;;;22.60;95.30;;;;;;5089507;28;20024;-52
2023/07/09 07:06:52;;;;;;;9.10;7.25;;;22.70;94.70;;;;;;5088525;28;20027;-53
2023/07/09 07:09:17;;;;;;;8.48;5.88;;;22.80;95.40;;;;;;5056805;28;20023;-52
2023/07/09 07:11:43;;;;;;;9.57;6.63;;;23.00;93.90;;;;;;4987872;28;20671;-53
2023/07/09 07:14:08;;;;;;;11.23;6.55;;;23.10;94.20;;;;;;5010947;28;20056;-52
2023/07/09 07:16:34;;;;;;;9.55;6.25;;;23.20;94.30;;;;;;5089818;28;20027;-53
2023/07/09 07:18:59;;;;;;;9.40;6.93;;;23.30;93.70;;;;;;5051137;28;20501;-53
2023/07/09 07:21:25;;;;;;;7.78;6.10;;;23.40;93.90;;;;;;5089079;28;20043;-53
2023/07/09 07:23:50;;;;;;;7.53;6.75;;;23.60;93.40;;;;;;5089699;28;20046;-54
2023/07/09 07:26:16;;;;;;;9.88;6.22;;;23.70;93.50;;;;;;5071510;28;20115;-53
2023/07/09 07:28:41;;;;;;;8.13;6.65;;;23.80;93.50;;;;;;5071118;28;20429;-54
2023/07/09 07:31:08;;;;;;;7.90;6.40;;;23.90;92.80;;;;;;5089847;28;20032;-52
2023/07/09 07:33:35;;;;;;;16.88;10.65;;;24.00;92.80;;;;;;5089509;28;20060;-53
2023/07/09 07:36:00;;;;;;;15.15;11.38;;;24.20;92.00;;;;;;5089662;28;20028;-53
2023/07/09 07:38:26;;;;;;;15.10;9.10;;;24.40;91.10;;;;;;5089290;28;20178;-53
2023/07/09 07:40:53;;;;;;;9.65;8.40;;;24.60;90.70;;;;;;5089910;28;20077;-53
2023/07/09 07:43:18;;;;;;;25.88;17.45;;;24.70;91.60;;;;;;5090089;28;20431;-53
2023/07/09 07:45:44;;;;;;;25.98;18.15;;;24.90;91.50;;;;;;5089839;28;20282;-53
2023/07/09 07:48:10;;;;;;;16.45;12.70;;;25.10;92.10;;;;;;5071224;28;20023;-52
2023/07/09 07:50:36;;;;;;;12.25;10.80;;;25.20;91.90;;;;;;5061607;28;20074;-53
2023/07/09 07:53:01;;;;;;;9.13;7.43;;;25.30;91.60;;;;;;5089530;28;20032;-53
2023/07/09 07:55:27;;;;;;;14.30;11.93;;;25.50;90.00;;;;;;5089685;28;20035;-54
2023/07/09 07:57:53;;;;;;;11.13;9.07;;;25.70;90.40;;;;;;5089819;28;20119;-54
2023/07/09 08:00:18;;;;;;;10.15;7.90;;;25.90;88.10;;;;;;5093154;28;20028;-53
2023/07/09 08:02:45;;;;;;;8.93;6.60;;;26.00;87.50;;;;;;5093436;28;20035;-54
2023/07/09 08:05:10;;;;;;;7.80;6.50;;;26.20;88.60;;;;;;5093325;28;20111;-54
2023/07/09 08:07:36;;;;;;;8.50;7.55;;;26.50;88.40;;;;;;5093271;28;20107;-54
2023/07/09 08:10:01;;;;;;;11.00;7.00;;;26.70;89.00;;;;;;5093525;28;20128;-54
2023/07/09 08:12:27;;;;;;;9.60;7.07;;;27.00;87.60;;;;;;5093298;28;20233;-53
2023/07/09 08:14:52;;;;;;;7.57;6.30;;;27.10;86.00;;;;;;5093241;28;20031;-54
2023/07/09 08:17:18;;;;;;;8.25;6.20;;;27.30;82.90;;;;;;5093011;28;20028;-54
2023/07/09 08:19:49;;;;;;;10.25;5.75;;;27.80;83.60;;;;;;5064834;28;20020;-54
2023/07/09 08:22:15;;;;;;;6.40;5.80;;;28.60;84.40;;;;;;5092828;28;20028;-54
2023/07/09 08:24:42;;;;;;;5.53;5.03;;;29.50;82.00;;;;;;5093072;28;20477;-54
2023/07/09 08:27:07;;;;;;;5.00;4.60;;;30.70;79.90;;;;;;5092445;28;20115;-53
2023/07/09 08:29:34;;;;;;;6.45;5.10;;;31.90;75.50;;;;;;5092633;28;20056;-52
2023/07/09 08:31:59;;;;;;;6.10;4.75;;;32.80;73.70;;;;;;5093106;28;20024;-52
2023/07/09 08:34:25;;;;;;;5.95;5.00;;;33.60;69.40;;;;;;5092741;28;20035;-52
2023/07/09 08:36:50;;;;;;;5.95;4.20;;;34.30;69.50;;;;;;5074222;28;20046;-53
2023/07/09 08:39:16;;;;;;;6.07;5.10;;;35.00;66.60;;;;;;5092704;28;20032;-53
2023/07/09 08:41:53;;;;;;;9.15;4.65;;;35.70;63.70;;;;;;5092986;28;20073;-53
2023/07/09 08:44:43;;;;;;;9.10;4.20;;;35.80;62.70;;;;;;5092482;28;20107;-53
2023/07/09 08:47:54;;;;;;;4.80;4.40;;;36.30;63.20;;;;;;5073940;28;20024;-53
2023/07/09 08:50:23;;;;;;;7.10;3.90;;;37.10;61.10;;;;;;5049488;28;20047;-53
2023/07/09 08:52:50;;;;;;;;;;;37.30;60.70;;;;;;5093085;28;20028;-53
2023/07/09 08:55:19;;;;;;;4.18;3.65;;;37.70;58.00;;;;;;5074249;28;19912;-53
2023/07/09 08:57:49;;;;;;;4.57;4.03;;;38.30;57.20;;;;;;5073839;28;20024;-53
2023/07/09 09:00:22;;;;;;;6.03;3.65;;;38.30;53.80;;;;;;5091893;28;20468;-53
2023/07/09 09:02:52;;;;;;;3.92;3.60;;;38.40;56.10;;;;;;5092038;28;20032;-53
2023/07/09 09:05:21;;;;;;;5.57;3.70;;;39.00;54.40;;;;;;5091306;28;20500;-54
2023/07/09 09:08:13;;;;;;;6.47;3.72;;;39.10;54.30;;;;;;5091398;28;20091;-54
2023/07/09 09:10:46;;;;;;;4.60;4.10;;;39.20;54.50;;;;;;5090258;28;20548;-54
2023/07/09 09:13:16;;;;;;;4.05;3.63;;;39.80;52.10;;;;;;5091466;28;20024;-54
2023/07/09 09:15:47;;;;;;;5.68;4.03;;;39.90;51.60;;;;;;5091491;28;20620;-54
2023/07/09 09:18:18;;;;;;;3.92;3.63;;;40.10;53.50;;;;;;5073053;28;20028;-54
2023/07/09 09:21:07;;;;;;;5.20;3.80;;;39.90;52.00;;;;;;5028677;28;20024;-54
2023/07/09 09:23:44;;;;;;;6.85;4.00;;;40.30;50.60;;;;;;5090841;28;20046;-54
2023/07/09 09:26:18;;;;;;;6.40;3.70;;;39.90;49.70;;;;;;5091856;28;20031;-54
2023/07/09 09:28:43;;;;;;;4.03;3.45;;;40.00;50.30;;;;;;5091302;28;20408;-54
2023/07/09 09:31:12;;;;;;;4.00;3.60;;;40.50;48.40;;;;;;5091490;28;20020;-54
2023/07/09 09:33:42;;;;;;;6.05;3.72;;;40.90;49.00;;;;;;5091613;28;20392;-54
2023/07/09 09:36:25;;;;;;;4.70;4.20;;;41.50;49.70;;;;;;5091725;28;20024;-54
2023/07/09 09:38:51;;;;;;;6.53;3.72;;;41.40;48.00;;;;;;5090956;28;20398;-56
2023/07/09 09:41:29;;;;;;;7.25;3.83;;;41.50;49.90;;;;;;5091607;28;20050;-56
2023/07/09 09:43:56;;;;;;;5.03;3.40;;;41.20;48.80;;;;;;5091483;28;20028;-56
2023/07/09 09:46:25;;;;;;;4.00;3.60;;;41.20;48.90;;;;;;5091189;28;20111;-56
2023/07/09 09:48:54;;;;;;;5.32;3.22;;;41.60;48.20;;;;;;5091014;28;20028;-56
2023/07/09 09:51:20;;;;;;;3.92;3.60;;;41.70;48.60;;;;;;5059251;28;20042;-56
2023/07/09 09:53:52;;;;;;;4.40;4.00;;;41.70;47.80;;;;;;5091131;28;20103;-56
2023/07/09 09:56:24;;;;;;;5.57;4.20;;;42.00;47.50;;;;;;5091399;28;20024;-56
2023/07/09 09:58:54;;;;;;;4.05;3.47;;;42.10;47.10;;;;;;5090942;28;20051;-55
2023/07/09 10:01:20;;;;;;;3.80;3.50;;;42.30;47.00;;;;;;5091378;28;20392;-56
2023/07/09 10:03:50;;;;;;;4.28;3.88;;;42.60;45.60;;;;;;5073839;28;20105;-56
2023/07/09 10:06:23;;;;;;;11.93;3.88;;;42.40;45.40;;;;;;4988275;28;20033;-55
2023/07/09 10:08:56;;;;;;;5.88;3.90;;;42.00;48.40;;;;;;4987333;28;20227;-56
2023/07/09 10:11:32;;;;;;;5.78;3.60;;;42.10;47.50;;;;;;4970442;28;20514;-56
2023/07/09 10:14:16;;;;;;;5.82;3.65;;;42.60;46.90;;;;;;4986723;28;20027;-56
2023/07/09 10:16:48;;;;;;;5.90;3.70;;;42.60;45.60;;;;;;4970970;28;20037;-56
2023/07/09 10:19:23;;;;;;;4.85;3.80;;;42.80;46.90;;;;;;4987776;28;20034;-56
2023/07/09 10:22:00;;;;;;;5.40;3.70;;;42.40;47.50;;;;;;5057789;28;20016;-56
2023/07/09 10:24:51;;;;;;;8.00;3.83;;;43.20;46.00;;;;;;5090267;28;20024;-56
2023/07/09 10:27:25;;;;;;;5.07;3.83;;;43.10;44.70;;;;;;5090099;28;20028;-56
2023/07/09 10:30:09;;;;;;;9.18;4.25;;;43.00;45.50;;;;;;5089983;28;20031;-56
2023/07/09 10:33:02;;;;;;;4.47;3.67;;;42.40;46.50;;;;;;5090434;28;20035;-56
2023/07/09 10:35:30;;;;;;;4.60;4.10;;;42.90;45.00;;;;;;5090294;28;20020;-55
2023/07/09 10:37:55;;;;;;;;;;;42.80;45.20;;;;;;5028615;28;20022;-56
2023/07/09 10:40:31;;;;;;;4.32;3.40;;;43.10;46.10;;;;;;4974915;28;19962;-56
2023/07/09 10:43:00;;;;;;;6.18;3.58;;;43.70;44.30;;;;;;4995308;28;20395;-56
2023/07/09 10:45:52;;;;;;;4.60;3.53;;;43.60;45.30;;;;;;4969542;28;20090;-56
2023/07/09 10:48:39;;;;;;;4.72;3.90;;;43.00;45.40;;;;;;4986629;28;20025;-55
2023/07/09 10:51:36;;;;;;;4.13;3.72;;;43.10;44.50;;;;;;5017652;28;20038;-56
2023/07/09 10:54:05;;;;;;;6.57;3.67;;;43.10;44.00;;;;;;4983344;28;20400;-56
2023/07/09 10:56:35;;;;;;;4.43;3.90;;;42.70;42.60;;;;;;4986822;28;20121;-56
2023/07/09 10:59:10;;;;;;;5.00;3.92;;;42.60;46.20;;;;;;4986487;28;20442;-56
2023/07/09 11:01:42;;;;;;;4.60;3.53;;;42.30;42.90;;;;;;4987198;28;20206;-56
2023/07/09 11:04:27;;;;;;;5.53;3.30;;;43.00;44.20;;;;;;5020072;28;20031;-56
2023/07/09 11:06:55;;;;;;;5.15;3.50;;;43.60;43.80;;;;;;4994944;28;20030;-56
2023/07/09 11:09:36;;;;;;;4.47;3.70;;;43.60;44.00;;;;;;4985352;28;20042;-55
2023/07/09 11:12:29;;;;;;;5.30;3.65;;;44.10;44.70;;;;;;5089557;28;20048;-55
2023/07/09 11:15:00;;;;;;;6.63;3.65;;;44.10;44.10;;;;;;5083334;28;20036;-55
2023/07/09 11:17:28;;;;;;;4.68;4.13;;;43.50;42.60;;;;;;5089504;28;20224;-55
2023/07/09 11:20:07;;;;;;;6.25;3.65;;;43.60;43.80;;;;;;5089181;28;20038;-55
2023/07/09 11:22:38;;;;;;;5.82;3.85;;;43.90;42.40;;;;;;5089467;28;20024;-55
2023/07/09 11:25:26;;;;;;;3.97;3.22;;;44.20;42.00;;;;;;5088985;28;20126;-56
2023/07/09 11:27:56;;;;;;;;;;;43.60;42.00;;;;;;5089073;28;20450;-56
2023/07/09 11:30:27;;;;;;;5.43;3.78;;;43.20;41.90;;;;;;5088382;28;20227;-56
2023/07/09 11:33:04;;;;;;;5.82;3.65;;;43.60;44.00;;;;;;5088051;28;20020;-56
2023/07/09 11:35:51;;;;;;;6.80;3.75;;;43.90;42.10;;;;;;5088829;28;20103;-56
2023/07/09 11:38:22;;;;;;;4.72;3.72;;;43.90;42.40;;;;;;4983358;28;20026;-56
2023/07/09 11:40:53;;;;;;;8.77;3.60;;;43.20;41.20;;;;;;5055701;28;20175;-55
2023/07/09 11:43:47;;;;;;;7.78;3.50;;;42.40;42.50;;;;;;5088757;28;20039;-56
2023/07/09 11:46:17;;;;;;;7.65;4.20;;;42.50;40.50;;;;;;5088982;28;20046;-56
2023/07/09 11:48:44;;;;;;;5.38;4.15;;;42.10;41.50;;;;;;5069773;28;20024;-56
2023/07/09 11:51:17;;;;;;;5.05;3.80;;;42.00;42.70;;;;;;5071718;28;20080;-56
2023/07/09 11:53:53;;;;;;;6.28;3.97;;;42.00;42.10;;;;;;5087194;28;20020;-56
2023/07/09 11:56:20;;;;;;;4.68;3.80;;;42.40;42.50;;;;;;5087129;28;20488;-56
2023/07/09 11:58:51;;;;;;;6.68;3.90;;;42.60;42.60;;;;;;5086912;28;20071;-56
2023/07/09 12:01:20;;;;;;;5.30;3.75;;;42.70;42.40;;;;;;4983863;28;20113;-56
2023/07/09 12:03:47;;;;;;;6.80;4.20;;;42.80;41.70;;;;;;4967601;28;20049;-56
2023/07/09 12:06:31;;;;;;;6.13;4.57;;;42.20;43.80;;;;;;4968458;28;20026;-56
2023/07/09 12:08:57;;;;;;;4.72;3.97;;;41.60;40.40;;;;;;4985683;28;20023;-56
2023/07/09 12:11:28;;;;;;;4.80;4.13;;;41.40;42.80;;;;;;4986110;28;20029;-56
2023/07/09 12:13:54;;;;;;;5.78;4.22;;;40.90;43.00;;;;;;4983408;28;20027;-55
2023/07/09 12:16:29;;;;;;;5.20;4.10;;;40.50;43.90;;;;;;5002859;28;20095;-56
2023/07/09 12:18:55;;;;;;;5.47;4.35;;;40.30;46.60;;;;;;5004727;28;20099;-56
2023/07/09 12:21:23;;;;;;;5.35;4.40;;;40.00;45.30;;;;;;5039562;28;20020;-55
2023/07/09 12:23:49;;;;;;;6.32;4.38;;;39.80;44.00;;;;;;5088583;28;20020;-56
2023/07/09 12:26:17;;;;;;;5.15;4.68;;;39.60;45.90;;;;;;5088606;28;20024;-55
2023/07/09 12:28:48;;;;;;;7.87;4.73;;;39.50;45.80;;;;;;5087951;28;20044;-56
2023/07/09 12:31:15;;;;;;;6.93;4.55;;;39.30;45.60;;;;;;5070259;28;20238;-56
2023/07/09 12:33:53;;;;;;;5.55;4.90;;;39.30;44.70;;;;;;5088286;28;20024;-55
2023/07/09 12:36:19;;;;;;;5.47;4.65;;;39.20;48.20;;;;;;5070478;28;20023;-56
2023/07/09 12:38:49;;;;;;;4.85;4.28;;;39.10;46.80;;;;;;5085053;28;20024;-56
2023/07/09 12:41:18;;;;;;;6.97;4.47;;;38.80;46.10;;;;;;5074393;28;20064;-55
2023/07/09 12:43:43;;;;;;;5.32;4.82;;;38.60;45.30;;;;;;5088501;28;20020;-56
2023/07/09 12:46:09;;;;;;;6.32;5.07;;;38.50;47.70;;;;;;5091306;28;20042;-56
2023/07/09 12:48:35;;;;;;;5.72;5.10;;;38.40;46.10;;;;;;5072688;28;20127;-55
2023/07/09 12:51:01;;;;;;;8.23;5.13;;;38.30;45.90;;;;;;5091585;28;20024;-55
2023/07/09 12:53:28;;;;;;;10.32;6.35;;;38.20;48.00;;;;;;5091388;28;20024;-56